sensor_id;sensor_type;location;lat;lon;timestamp;temperature;humidity
23143;DHT22;11740;51.168;4.112;2023-06-22T00:01:01;23.50;99.90
23143;DHT22;11740;51.168;4.112;2023-06-22T00:03:28;23.40;99.90
23143;DHT22;11740;51.168;4.112;2023-06-22T00:05:55;23.40;99.90
23143;DHT22;11740;51.168;4.112;2023-06-22T00:08:22;23.40;99.90
23143;DHT22;11740;51.168;4.112;2023-06-22T00:10:49;23.20;99.90
23143;DHT22;11740;51.168;4.112;2023-06-22T00:13:16;23.10;99.90
23143;DHT22;11740;51.168;4.112;2023-06-22T00:15:44;23.10;99.90
23143;DHT22;11740;51.168;4.112;2023-06-22T00:18:11;23.00;99.90
23143;DHT22;11740;51.168;4.112;2023-06-22T00:20:39;22.90;99.90
23143;DHT22;11740;51.168;4.112;2023-06-22T00:23:07;22.80;99.90
23143;DHT22;11740;51.168;4.112;2023-06-22T00:25:35;22.80;99.90
23143;DHT22;11740;51.168;4.112;2023-06-22T00:28:07;22.80;99.90
23143;DHT22;11740;51.168;4.112;2023-06-22T00:30:34;22.80;99.90
23143;DHT22;11740;51.168;4.112;2023-06-22T00:33:01;22.80;99.90
23143;DHT22;11740;51.168;4.112;2023-06-22T00:35:29;22.70;99.90
23143;DHT22;11740;51.168;4.112;2023-06-22T00:37:56;22.70;99.90
23143;DHT22;11740;51.168;4.112;2023-06-22T00:40:31;22.70;99.90
23143;DHT22;11740;51.168;4.112;2023-06-22T00:42:59;22.60;99.90
23143;DHT22;11740;51.168;4.112;2023-06-22T00:45:26;22.40;99.90
23143;DHT22;11740;51.168;4.112;2023-06-22T00:47:55;22.20;99.90
23143;DHT22;11740;51.168;4.112;2023-06-22T00:50:24;22.20;99.90
23143;DHT22;11740;51.168;4.112;2023-06-22T00:52:54;22.20;99.90
23143;DHT22;11740;51.168;4.112;2023-06-22T00:55:25;22.20;99.90
23143;DHT22;11740;51.168;4.112;2023-06-22T00:57:53;22.20;99.90
23143;DHT22;11740;51.168;4.112;2023-06-22T01:00:23;22.20;99.90
23143;DHT22;11740;51.168;4.112;2023-06-22T01:02:51;22.10;99.90
23143;DHT22;11740;51.168;4.112;2023-06-22T01:05:20;22.10;99.90
23143;DHT22;11740;51.168;4.112;2023-06-22T01:10:39;21.90;99.90
23143;DHT22;11740;51.168;4.112;2023-06-22T01:13:18;21.80;99.90
23143;DHT22;11740;51.168;4.112;2023-06-22T01:15:53;21.80;99.90
23143;DHT22;11740;51.168;4.112;2023-06-22T01:18:24;21.70;99.90
23143;DHT22;11740;51.168;4.112;2023-06-22T01:20:53;21.70;99.90
23143;DHT22;11740;51.168;4.112;2023-06-22T01:23:31;21.60;99.90
23143;DHT22;11740;51.168;4.112;2023-06-22T01:26:08;21.60;99.90
23143;DHT22;11740;51.168;4.112;2023-06-22T01:28:45;21.60;99.90
23143;DHT22;11740;51.168;4.112;2023-06-22T01:31:16;21.50;99.90
23143;DHT22;11740;51.168;4.112;2023-06-22T01:33:47;21.50;99.90
23143;DHT22;11740;51.168;4.112;2023-06-22T01:36:16;21.40;99.90
23143;DHT22;11740;51.168;4.112;2023-06-22T01:38:43;21.40;99.90
23143;DHT22;11740;51.168;4.112;2023-06-22T01:41:11;21.30;99.90
23143;DHT22;11740;51.168;4.112;2023-06-22T01:43:38;21.30;99.90
23143;DHT22;11740;51.168;4.112;2023-06-22T01:46:05;21.30;99.90
23143;DHT22;11740;51.168;4.112;2023-06-22T01:48:32;21.20;99.90
23143;DHT22;11740;51.168;4.112;2023-06-22T01:50:59;21.10;99.90
23143;DHT22;11740;51.168;4.112;2023-06-22T01:53:26;21.10;99.90
23143;DHT22;11740;51.168;4.112;2023-06-22T01:55:53;21.10;99.90
23143;DHT22;11740;51.168;4.112;2023-06-22T01:58:20;21.00;99.90
23143;DHT22;11740;51.168;4.112;2023-06-22T02:00:49;20.90;99.90
23143;DHT22;11740;51.168;4.112;2023-06-22T02:03:19;20.90;99.90
23143;DHT22;11740;51.168;4.112;2023-06-22T02:05:52;20.80;99.90
23143;DHT22;11740;51.168;4.112;2023-06-22T02:08:30;20.80;99.90
23143;DHT22;11740;51.168;4.112;2023-06-22T02:10:59;20.70;99.90
23143;DHT22;11740;51.168;4.112;2023-06-22T02:13:27;20.80;99.90
23143;DHT22;11740;51.168;4.112;2023-06-22T02:15:54;20.70;99.90
23143;DHT22;11740;51.168;4.112;2023-06-22T02:18:21;20.70;99.90
23143;DHT22;11740;51.168;4.112;2023-06-22T02:20:48;20.60;99.90
23143;DHT22;11740;51.168;4.112;2023-06-22T02:23:14;20.50;99.90
23143;DHT22;11740;51.168;4.112;2023-06-22T02:25:41;20.50;99.90
23143;DHT22;11740;51.168;4.112;2023-06-22T02:28:11;20.40;99.90
23143;DHT22;11740;51.168;4.112;2023-06-22T02:30:37;20.40;99.90
23143;DHT22;11740;51.168;4.112;2023-06-22T02:33:04;20.40;99.90
23143;DHT22;11740;51.168;4.112;2023-06-22T02:35:31;20.30;99.90
23143;DHT22;11740;51.168;4.112;2023-06-22T02:37:59;20.30;99.90
23143;DHT22;11740;51.168;4.112;2023-06-22T02:40:27;20.30;99.90
23143;DHT22;11740;51.168;4.112;2023-06-22T02:42:56;20.20;99.90
23143;DHT22;11740;51.168;4.112;2023-06-22T02:45:29;20.20;99.90
23143;DHT22;11740;51.168;4.112;2023-06-22T02:47:56;20.00;99.90
23143;DHT22;11740;51.168;4.112;2023-06-22T02:50:23;19.90;99.90
23143;DHT22;11740;51.168;4.112;2023-06-22T02:52:50;19.90;99.90
23143;DHT22;11740;51.168;4.112;2023-06-22T02:55:17;19.90;99.90
23143;DHT22;11740;51.168;4.112;2023-06-22T02:57:44;19.80;99.90
23143;DHT22;11740;51.168;4.112;2023-06-22T03:00:12;19.70;99.90
23143;DHT22;11740;51.168;4.112;2023-06-22T03:02:48;19.70;99.90
23143;DHT22;11740;51.168;4.112;2023-06-22T03:05:16;19.70;99.90
23143;DHT22;11740;51.168;4.112;2023-06-22T03:07:45;19.60;99.90
23143;DHT22;11740;51.168;4.112;2023-06-22T03:10:12;19.50;99.90
23143;DHT22;11740;51.168;4.112;2023-06-22T03:12:41;19.50;99.90
23143;DHT22;11740;51.168;4.112;2023-06-22T03:15:11;19.50;99.90
23143;DHT22;11740;51.168;4.112;2023-06-22T03:17:39;19.50;99.90
23143;DHT22;11740;51.168;4.112;2023-06-22T03:20:06;19.50;99.90
23143;DHT22;11740;51.168;4.112;2023-06-22T03:22:38;19.50;99.90
23143;DHT22;11740;51.168;4.112;2023-06-22T03:25:09;19.40;99.90
23143;DHT22;11740;51.168;4.112;2023-06-22T03:27:37;19.30;99.90
23143;DHT22;11740;51.168;4.112;2023-06-22T03:30:04;19.30;99.90
23143;DHT22;11740;51.168;4.112;2023-06-22T03:32:34;19.30;99.90
23143;DHT22;11740;51.168;4.112;2023-06-22T03:35:01;19.30;99.90
23143;DHT22;11740;51.168;4.112;2023-06-22T03:37:28;19.30;99.90
23143;DHT22;11740;51.168;4.112;2023-06-22T03:39:55;19.30;99.90
23143;DHT22;11740;51.168;4.112;2023-06-22T03:42:22;19.20;99.90
23143;DHT22;11740;51.168;4.112;2023-06-22T03:44:49;19.10;99.90
23143;DHT22;11740;51.168;4.112;2023-06-22T03:47:16;19.10;99.90
23143;DHT22;11740;51.168;4.112;2023-06-22T03:49:43;19.00;1.00
23143;DHT22;11740;51.168;4.112;2023-06-22T03:52:10;18.90;1.00
23143;DHT22;11740;51.168;4.112;2023-06-22T03:54:38;18.90;1.00
23143;DHT22;11740;51.168;4.112;2023-06-22T03:57:04;18.90;1.00
23143;DHT22;11740;51.168;4.112;2023-06-22T03:59:32;18.90;1.00
23143;DHT22;11740;51.168;4.112;2023-06-22T04:01:59;18.70;1.00
23143;DHT22;11740;51.168;4.112;2023-06-22T04:04:26;18.70;1.00
23143;DHT22;11740;51.168;4.112;2023-06-22T04:06:53;18.70;1.00
23143;DHT22;11740;51.168;4.112;2023-06-22T04:09:19;18.70;1.00
23143;DHT22;11740;51.168;4.112;2023-06-22T04:11:48;18.70;1.00
23143;DHT22;11740;51.168;4.112;2023-06-22T04:14:14;18.60;1.00
23143;DHT22;11740;51.168;4.112;2023-06-22T04:16:41;18.50;1.00
23143;DHT22;11740;51.168;4.112;2023-06-22T04:19:08;18.60;1.00
23143;DHT22;11740;51.168;4.112;2023-06-22T04:21:40;18.50;1.00
23143;DHT22;11740;51.168;4.112;2023-06-22T04:24:07;18.50;49.30
23143;DHT22;11740;51.168;4.112;2023-06-22T04:26:34;18.50;1.00
23143;DHT22;11740;51.168;4.112;2023-06-22T04:29:03;18.50;1.00
23143;DHT22;11740;51.168;4.112;2023-06-22T04:31:32;18.50;1.00
23143;DHT22;11740;51.168;4.112;2023-06-22T04:34:03;18.50;1.00
23143;DHT22;11740;51.168;4.112;2023-06-22T04:36:38;18.40;99.90
23143;DHT22;11740;51.168;4.112;2023-06-22T04:39:09;18.50;99.90
23143;DHT22;11740;51.168;4.112;2023-06-22T04:41:37;18.40;99.90
23143;DHT22;11740;51.168;4.112;2023-06-22T04:44:19;18.40;70.20
23143;DHT22;11740;51.168;4.112;2023-06-22T04:46:55;18.40;10.30
23143;DHT22;11740;51.168;4.112;2023-06-22T04:49:27;18.40;99.90
23143;DHT22;11740;51.168;4.112;2023-06-22T04:52:06;18.40;99.90
23143;DHT22;11740;51.168;4.112;2023-06-22T04:54:34;18.40;54.90
23143;DHT22;11740;51.168;4.112;2023-06-22T04:57:02;18.40;99.90
23143;DHT22;11740;51.168;4.112;2023-06-22T04:59:30;18.40;99.90
23143;DHT22;11740;51.168;4.112;2023-06-22T05:01:57;18.40;99.90
23143;DHT22;11740;51.168;4.112;2023-06-22T05:04:26;18.40;99.90
23143;DHT22;11740;51.168;4.112;2023-06-22T05:06:54;18.50;99.90
23143;DHT22;11740;51.168;4.112;2023-06-22T05:09:21;18.50;99.90
23143;DHT22;11740;51.168;4.112;2023-06-22T05:11:48;18.50;99.90
23143;DHT22;11740;51.168;4.112;2023-06-22T05:14:15;18.50;99.90
23143;DHT22;11740;51.168;4.112;2023-06-22T05:16:43;18.60;99.90
23143;DHT22;11740;51.168;4.112;2023-06-22T05:19:10;18.60;99.90
23143;DHT22;11740;51.168;4.112;2023-06-22T05:21:37;18.70;99.90
23143;DHT22;11740;51.168;4.112;2023-06-22T05:24:05;18.70;1.00
23143;DHT22;11740;51.168;4.112;2023-06-22T05:26:32;18.70;1.00
23143;DHT22;11740;51.168;4.112;2023-06-22T05:29:01;18.60;1.00
23143;DHT22;11740;51.168;4.112;2023-06-22T05:31:29;18.60;1.00
23143;DHT22;11740;51.168;4.112;2023-06-22T05:33:56;18.60;1.00
23143;DHT22;11740;51.168;4.112;2023-06-22T05:36:23;18.60;99.90
23143;DHT22;11740;51.168;4.112;2023-06-22T05:38:52;18.60;1.00
23143;DHT22;11740;51.168;4.112;2023-06-22T05:41:19;18.70;99.90
23143;DHT22;11740;51.168;4.112;2023-06-22T05:43:46;18.60;63.40
23143;DHT22;11740;51.168;4.112;2023-06-22T05:46:13;18.70;99.90
23143;DHT22;11740;51.168;4.112;2023-06-22T05:48:40;18.70;99.90
23143;DHT22;11740;51.168;4.112;2023-06-22T05:51:07;18.70;1.00
23143;DHT22;11740;51.168;4.112;2023-06-22T05:53:34;18.70;99.90
23143;DHT22;11740;51.168;4.112;2023-06-22T05:56:00;18.80;66.60
23143;DHT22;11740;51.168;4.112;2023-06-22T05:58:27;18.80;99.90
23143;DHT22;11740;51.168;4.112;2023-06-22T06:00:54;18.90;99.90
23143;DHT22;11740;51.168;4.112;2023-06-22T06:03:21;18.90;99.90
23143;DHT22;11740;51.168;4.112;2023-06-22T06:05:48;19.00;99.90
23143;DHT22;11740;51.168;4.112;2023-06-22T06:08:15;19.00;38.70
23143;DHT22;11740;51.168;4.112;2023-06-22T06:10:42;19.10;1.00
23143;DHT22;11740;51.168;4.112;2023-06-22T06:13:08;19.00;29.90
23143;DHT22;11740;51.168;4.112;2023-06-22T06:15:35;19.10;25.60
23143;DHT22;11740;51.168;4.112;2023-06-22T06:18:02;19.10;1.00
23143;DHT22;11740;51.168;4.112;2023-06-22T06:20:32;19.20;99.90
23143;DHT22;11740;51.168;4.112;2023-06-22T06:22:59;19.20;99.90
23143;DHT22;11740;51.168;4.112;2023-06-22T06:25:26;19.30;99.90
23143;DHT22;11740;51.168;4.112;2023-06-22T06:27:53;19.30;99.90
23143;DHT22;11740;51.168;4.112;2023-06-22T06:30:21;19.40;99.90
23143;DHT22;11740;51.168;4.112;2023-06-22T06:32:49;19.40;99.90
23143;DHT22;11740;51.168;4.112;2023-06-22T06:35:16;19.50;99.90
23143;DHT22;11740;51.168;4.112;2023-06-22T06:37:44;19.50;99.90
23143;DHT22;11740;51.168;4.112;2023-06-22T06:40:13;19.60;99.90
23143;DHT22;11740;51.168;4.112;2023-06-22T06:42:42;19.60;99.90
23143;DHT22;11740;51.168;4.112;2023-06-22T06:45:12;19.60;99.90
23143;DHT22;11740;51.168;4.112;2023-06-22T06:47:44;19.70;1.00
23143;DHT22;11740;51.168;4.112;2023-06-22T06:50:12;19.70;99.90
23143;DHT22;11740;51.168;4.112;2023-06-22T06:52:39;19.80;99.90
23143;DHT22;11740;51.168;4.112;2023-06-22T06:55:06;19.80;99.90
23143;DHT22;11740;51.168;4.112;2023-06-22T06:57:34;19.90;1.00
23143;DHT22;11740;51.168;4.112;2023-06-22T07:00:01;19.90;99.90
23143;DHT22;11740;51.168;4.112;2023-06-22T07:02:33;20.00;99.90
23143;DHT22;11740;51.168;4.112;2023-06-22T07:04:59;20.00;99.90
23143;DHT22;11740;51.168;4.112;2023-06-22T07:07:26;20.00;99.90
23143;DHT22;11740;51.168;4.112;2023-06-22T07:09:53;20.00;99.90
23143;DHT22;11740;51.168;4.112;2023-06-22T07:12:20;20.10;1.00
23143;DHT22;11740;51.168;4.112;2023-06-22T07:14:47;20.10;1.00
23143;DHT22;11740;51.168;4.112;2023-06-22T07:17:14;20.20;99.90
23143;DHT22;11740;51.168;4.112;2023-06-22T07:19:41;20.20;1.00
23143;DHT22;11740;51.168;4.112;2023-06-22T07:22:08;20.30;1.00
23143;DHT22;11740;51.168;4.112;2023-06-22T07:24:35;20.30;1.00
23143;DHT22;11740;51.168;4.112;2023-06-22T07:27:03;20.30;99.90
23143;DHT22;11740;51.168;4.112;2023-06-22T07:29:33;20.30;99.90
23143;DHT22;11740;51.168;4.112;2023-06-22T07:31:59;20.40;1.00
23143;DHT22;11740;51.168;4.112;2023-06-22T07:34:27;20.40;99.90
23143;DHT22;11740;51.168;4.112;2023-06-22T07:36:54;20.40;99.90
23143;DHT22;11740;51.168;4.112;2023-06-22T07:39:20;20.50;1.00
23143;DHT22;11740;51.168;4.112;2023-06-22T07:41:52;20.60;1.00
23143;DHT22;11740;51.168;4.112;2023-06-22T07:44:19;20.60;1.00
23143;DHT22;11740;51.168;4.112;2023-06-22T07:46:46;20.60;99.90
23143;DHT22;11740;51.168;4.112;2023-06-22T07:49:13;20.70;99.90
23143;DHT22;11740;51.168;4.112;2023-06-22T07:51:39;20.70;99.90
23143;DHT22;11740;51.168;4.112;2023-06-22T07:54:06;20.70;99.90
23143;DHT22;11740;51.168;4.112;2023-06-22T07:56:33;20.80;99.90
23143;DHT22;11740;51.168;4.112;2023-06-22T07:59:00;20.80;99.90
23143;DHT22;11740;51.168;4.112;2023-06-22T08:01:30;20.90;99.90
23143;DHT22;11740;51.168;4.112;2023-06-22T08:03:57;21.00;94.10
23143;DHT22;11740;51.168;4.112;2023-06-22T08:06:24;21.00;40.70
23143;DHT22;11740;51.168;4.112;2023-06-22T08:08:50;21.00;10.20
23143;DHT22;11740;51.168;4.112;2023-06-22T08:11:19;21.00;1.00
23143;DHT22;11740;51.168;4.112;2023-06-22T08:13:48;21.00;1.00
23143;DHT22;11740;51.168;4.112;2023-06-22T08:16:15;21.10;1.00
23143;DHT22;11740;51.168;4.112;2023-06-22T08:18:43;21.10;1.00
23143;DHT22;11740;51.168;4.112;2023-06-22T08:21:09;21.20;1.00
23143;DHT22;11740;51.168;4.112;2023-06-22T08:23:38;21.20;1.00
23143;DHT22;11740;51.168;4.112;2023-06-22T08:26:04;21.20;1.00
23143;DHT22;11740;51.168;4.112;2023-06-22T08:28:31;21.20;1.00
23143;DHT22;11740;51.168;4.112;2023-06-22T08:30:59;21.20;1.00
23143;DHT22;11740;51.168;4.112;2023-06-22T08:33:27;21.30;1.00
23143;DHT22;11740;51.168;4.112;2023-06-22T08:36:00;21.30;1.00
23143;DHT22;11740;51.168;4.112;2023-06-22T08:38:28;21.40;1.00
23143;DHT22;11740;51.168;4.112;2023-06-22T08:40:55;21.40;1.00
23143;DHT22;11740;51.168;4.112;2023-06-22T08:43:21;21.40;1.00
23143;DHT22;11740;51.168;4.112;2023-06-22T08:45:48;21.50;1.00
23143;DHT22;11740;51.168;4.112;2023-06-22T08:48:15;21.50;1.00
23143;DHT22;11740;51.168;4.112;2023-06-22T08:50:42;21.50;1.00
23143;DHT22;11740;51.168;4.112;2023-06-22T08:53:09;21.50;1.00
23143;DHT22;11740;51.168;4.112;2023-06-22T08:55:36;21.60;1.00
23143;DHT22;11740;51.168;4.112;2023-06-22T08:58:03;21.50;1.00
23143;DHT22;11740;51.168;4.112;2023-06-22T09:00:30;21.60;1.00
23143;DHT22;11740;51.168;4.112;2023-06-22T09:02:59;21.60;1.00
23143;DHT22;11740;51.168;4.112;2023-06-22T09:05:26;21.70;1.00
23143;DHT22;11740;51.168;4.112;2023-06-22T09:07:54;21.70;1.00
23143;DHT22;11740;51.168;4.112;2023-06-22T09:10:22;21.70;1.00
23143;DHT22;11740;51.168;4.112;2023-06-22T09:12:49;21.70;1.00
23143;DHT22;11740;51.168;4.112;2023-06-22T09:15:16;21.70;1.00
23143;DHT22;11740;51.168;4.112;2023-06-22T09:17:44;21.70;1.00
23143;DHT22;11740;51.168;4.112;2023-06-22T09:20:13;21.70;1.00
23143;DHT22;11740;51.168;4.112;2023-06-22T09:22:41;21.80;1.00
23143;DHT22;11740;51.168;4.112;2023-06-22T09:25:08;21.80;99.90
23143;DHT22;11740;51.168;4.112;2023-06-22T09:27:35;21.80;1.00
23143;DHT22;11740;51.168;4.112;2023-06-22T09:30:02;21.80;99.90
23143;DHT22;11740;51.168;4.112;2023-06-22T09:32:30;21.80;99.90
23143;DHT22;11740;51.168;4.112;2023-06-22T09:34:57;21.80;99.90
23143;DHT22;11740;51.168;4.112;2023-06-22T09:37:24;21.80;99.90
23143;DHT22;11740;51.168;4.112;2023-06-22T09:39:51;21.90;99.90
23143;DHT22;11740;51.168;4.112;2023-06-22T09:42:17;21.90;99.90
23143;DHT22;11740;51.168;4.112;2023-06-22T09:44:44;21.90;99.90
23143;DHT22;11740;51.168;4.112;2023-06-22T09:47:11;21.90;99.90
23143;DHT22;11740;51.168;4.112;2023-06-22T09:49:38;21.90;99.90
23143;DHT22;11740;51.168;4.112;2023-06-22T09:52:14;21.90;1.00
23143;DHT22;11740;51.168;4.112;2023-06-22T09:54:40;21.90;1.00
23143;DHT22;11740;51.168;4.112;2023-06-22T09:57:07;21.90;1.00
23143;DHT22;11740;51.168;4.112;2023-06-22T09:59:34;21.90;1.00
23143;DHT22;11740;51.168;4.112;2023-06-22T10:02:01;21.90;99.90
23143;DHT22;11740;51.168;4.112;2023-06-22T10:04:28;21.90;1.00
23143;DHT22;11740;51.168;4.112;2023-06-22T10:06:55;21.90;1.00
23143;DHT22;11740;51.168;4.112;2023-06-22T10:09:22;21.90;1.00
23143;DHT22;11740;51.168;4.112;2023-06-22T10:11:49;21.90;1.00
23143;DHT22;11740;51.168;4.112;2023-06-22T10:14:16;21.90;1.00
23143;DHT22;11740;51.168;4.112;2023-06-22T10:16:44;21.90;1.00
23143;DHT22;11740;51.168;4.112;2023-06-22T10:19:11;21.90;1.00
23143;DHT22;11740;51.168;4.112;2023-06-22T10:21:38;21.90;1.00
23143;DHT22;11740;51.168;4.112;2023-06-22T10:24:05;21.90;1.00
23143;DHT22;11740;51.168;4.112;2023-06-22T10:26:33;21.90;1.00
23143;DHT22;11740;51.168;4.112;2023-06-22T10:29:00;21.80;22.50
23143;DHT22;11740;51.168;4.112;2023-06-22T10:31:41;21.90;1.00
23143;DHT22;11740;51.168;4.112;2023-06-22T10:34:08;21.90;1.00
23143;DHT22;11740;51.168;4.112;2023-06-22T10:36:35;21.90;1.00
23143;DHT22;11740;51.168;4.112;2023-06-22T10:39:02;21.90;1.00
23143;DHT22;11740;51.168;4.112;2023-06-22T10:41:29;22.00;1.00
23143;DHT22;11740;51.168;4.112;2023-06-22T10:43:57;21.90;81.30
23143;DHT22;11740;51.168;4.112;2023-06-22T10:46:24;21.90;99.90
23143;DHT22;11740;51.168;4.112;2023-06-22T10:48:52;21.90;99.90
23143;DHT22;11740;51.168;4.112;2023-06-22T10:51:21;21.90;1.00
23143;DHT22;11740;51.168;4.112;2023-06-22T10:53:48;22.00;99.90
23143;DHT22;11740;51.168;4.112;2023-06-22T10:56:15;22.00;99.90
23143;DHT22;11740;51.168;4.112;2023-06-22T10:58:42;22.00;99.90
23143;DHT22;11740;51.168;4.112;2023-06-22T11:01:09;22.00;1.00
23143;DHT22;11740;51.168;4.112;2023-06-22T11:03:55;22.00;1.00
23143;DHT22;11740;51.168;4.112;2023-06-22T11:06:22;22.00;1.00
23143;DHT22;11740;51.168;4.112;2023-06-22T11:08:49;22.00;1.00
23143;DHT22;11740;51.168;4.112;2023-06-22T11:11:30;22.00;99.90
23143;DHT22;11740;51.168;4.112;2023-06-22T11:13:57;22.00;99.90
23143;DHT22;11740;51.168;4.112;2023-06-22T11:16:24;22.00;99.90
23143;DHT22;11740;51.168;4.112;2023-06-22T11:18:51;21.90;99.90
23143;DHT22;11740;51.168;4.112;2023-06-22T11:21:17;21.90;99.90
23143;DHT22;11740;51.168;4.112;2023-06-22T11:23:44;21.80;99.90
23143;DHT22;11740;51.168;4.112;2023-06-22T11:26:11;21.80;99.90
23143;DHT22;11740;51.168;4.112;2023-06-22T11:28:38;21.90;99.90
23143;DHT22;11740;51.168;4.112;2023-06-22T11:31:05;21.90;99.90
23143;DHT22;11740;51.168;4.112;2023-06-22T11:33:51;21.90;1.00
23143;DHT22;11740;51.168;4.112;2023-06-22T11:36:18;21.90;1.00
23143;DHT22;11740;51.168;4.112;2023-06-22T11:38:45;21.90;1.00
23143;DHT22;11740;51.168;4.112;2023-06-22T11:41:12;21.90;1.00
23143;DHT22;11740;51.168;4.112;2023-06-22T11:43:39;21.80;1.00
23143;DHT22;11740;51.168;4.112;2023-06-22T11:46:06;21.90;1.00
23143;DHT22;11740;51.168;4.112;2023-06-22T11:48:33;21.80;19.10
23143;DHT22;11740;51.168;4.112;2023-06-22T11:50:59;21.70;1.00
23143;DHT22;11740;51.168;4.112;2023-06-22T11:53:29;21.70;1.00
23143;DHT22;11740;51.168;4.112;2023-06-22T11:55:56;21.60;1.00
23143;DHT22;11740;51.168;4.112;2023-06-22T11:58:23;21.60;1.00
23143;DHT22;11740;51.168;4.112;2023-06-22T12:00:50;21.60;1.00
23143;DHT22;11740;51.168;4.112;2023-06-22T12:03:19;21.60;1.00
23143;DHT22;11740;51.168;4.112;2023-06-22T12:05:49;21.70;1.00
23143;DHT22;11740;51.168;4.112;2023-06-22T12:08:17;21.50;99.90
23143;DHT22;11740;51.168;4.112;2023-06-22T12:10:45;21.60;1.00
23143;DHT22;11740;51.168;4.112;2023-06-22T12:13:12;21.50;1.00
23143;DHT22;11740;51.168;4.112;2023-06-22T12:15:39;21.50;1.00
23143;DHT22;11740;51.168;4.112;2023-06-22T12:18:06;21.50;1.00
23143;DHT22;11740;51.168;4.112;2023-06-22T12:20:33;21.50;1.00
23143;DHT22;11740;51.168;4.112;2023-06-22T12:23:01;21.40;1.00
23143;DHT22;11740;51.168;4.112;2023-06-22T12:25:28;21.50;1.00
23143;DHT22;11740;51.168;4.112;2023-06-22T12:27:55;21.40;1.00
23143;DHT22;11740;51.168;4.112;2023-06-22T12:30:22;21.40;1.00
23143;DHT22;11740;51.168;4.112;2023-06-22T12:32:49;21.40;1.00
23143;DHT22;11740;51.168;4.112;2023-06-22T12:35:19;21.30;1.00
23143;DHT22;11740;51.168;4.112;2023-06-22T12:37:45;21.40;1.00
23143;DHT22;11740;51.168;4.112;2023-06-22T12:40:12;21.40;1.00
23143;DHT22;11740;51.168;4.112;2023-06-22T12:42:39;21.40;1.00
23143;DHT22;11740;51.168;4.112;2023-06-22T12:45:06;21.40;1.00
23143;DHT22;11740;51.168;4.112;2023-06-22T12:47:34;21.40;1.00
23143;DHT22;11740;51.168;4.112;2023-06-22T12:50:01;21.40;1.00
23143;DHT22;11740;51.168;4.112;2023-06-22T12:52:29;21.40;1.00
23143;DHT22;11740;51.168;4.112;2023-06-22T12:54:56;21.30;2.30
23143;DHT22;11740;51.168;4.112;2023-06-22T12:57:23;21.30;53.10
23143;DHT22;11740;51.168;4.112;2023-06-22T12:59:50;21.30;37.70
23143;DHT22;11740;51.168;4.112;2023-06-22T13:02:17;21.30;37.80
23143;DHT22;11740;51.168;4.112;2023-06-22T13:04:44;21.30;1.00
23143;DHT22;11740;51.168;4.112;2023-06-22T13:07:11;21.40;1.00
23143;DHT22;11740;51.168;4.112;2023-06-22T13:09:40;21.40;99.90
23143;DHT22;11740;51.168;4.112;2023-06-22T13:12:07;21.40;99.90
23143;DHT22;11740;51.168;4.112;2023-06-22T13:14:35;21.30;99.90
23143;DHT22;11740;51.168;4.112;2023-06-22T13:17:34;21.40;99.90
23143;DHT22;11740;51.168;4.112;2023-06-22T13:20:01;21.30;85.00
23143;DHT22;11740;51.168;4.112;2023-06-22T13:22:31;21.30;99.90
23143;DHT22;11740;51.168;4.112;2023-06-22T13:25:10;21.40;99.90
23143;DHT22;11740;51.168;4.112;2023-06-22T13:27:39;21.40;99.90
23143;DHT22;11740;51.168;4.112;2023-06-22T13:30:10;21.30;99.90
23143;DHT22;11740;51.168;4.112;2023-06-22T13:32:40;21.30;99.90
23143;DHT22;11740;51.168;4.112;2023-06-22T13:35:10;21.30;99.90
23143;DHT22;11740;51.168;4.112;2023-06-22T13:37:38;21.30;99.90
23143;DHT22;11740;51.168;4.112;2023-06-22T13:40:05;21.20;99.90
23143;DHT22;11740;51.168;4.112;2023-06-22T13:42:33;21.20;99.90
23143;DHT22;11740;51.168;4.112;2023-06-22T13:45:00;21.20;99.90
23143;DHT22;11740;51.168;4.112;2023-06-22T13:47:28;21.10;99.90
23143;DHT22;11740;51.168;4.112;2023-06-22T13:49:57;21.10;99.90
23143;DHT22;11740;51.168;4.112;2023-06-22T13:52:24;21.10;99.90
23143;DHT22;11740;51.168;4.112;2023-06-22T13:54:52;21.10;99.90
23143;DHT22;11740;51.168;4.112;2023-06-22T13:57:19;21.00;99.90
23143;DHT22;11740;51.168;4.112;2023-06-22T13:59:46;21.00;99.90
23143;DHT22;11740;51.168;4.112;2023-06-22T14:02:12;21.00;1.00
23143;DHT22;11740;51.168;4.112;2023-06-22T14:04:40;21.00;1.00
23143;DHT22;11740;51.168;4.112;2023-06-22T14:07:07;20.90;1.00
23143;DHT22;11740;51.168;4.112;2023-06-22T14:09:34;20.90;1.00
23143;DHT22;11740;51.168;4.112;2023-06-22T14:12:05;21.00;99.90
23143;DHT22;11740;51.168;4.112;2023-06-22T14:14:33;21.00;1.00
23143;DHT22;11740;51.168;4.112;2023-06-22T14:17:00;20.90;1.00
23143;DHT22;11740;51.168;4.112;2023-06-22T14:19:27;20.80;1.00
23143;DHT22;11740;51.168;4.112;2023-06-22T14:21:54;20.90;1.00
23143;DHT22;11740;51.168;4.112;2023-06-22T14:24:21;20.90;1.00
23143;DHT22;11740;51.168;4.112;2023-06-22T14:26:51;20.90;1.00
23143;DHT22;11740;51.168;4.112;2023-06-22T14:29:18;20.80;1.00
23143;DHT22;11740;51.168;4.112;2023-06-22T14:31:45;20.80;1.00
23143;DHT22;11740;51.168;4.112;2023-06-22T14:34:13;20.80;1.00
23143;DHT22;11740;51.168;4.112;2023-06-22T14:36:42;20.80;1.00
23143;DHT22;11740;51.168;4.112;2023-06-22T14:39:09;20.80;1.00
23143;DHT22;11740;51.168;4.112;2023-06-22T14:41:36;20.80;1.00
23143;DHT22;11740;51.168;4.112;2023-06-22T14:44:03;20.70;67.90
23143;DHT22;11740;51.168;4.112;2023-06-22T14:46:30;20.70;21.20
23143;DHT22;11740;51.168;4.112;2023-06-22T14:48:57;20.70;1.00
23143;DHT22;11740;51.168;4.112;2023-06-22T14:51:24;20.70;1.00
23143;DHT22;11740;51.168;4.112;2023-06-22T14:53:51;20.70;99.90
23143;DHT22;11740;51.168;4.112;2023-06-22T14:56:17;20.70;1.00
23143;DHT22;11740;51.168;4.112;2023-06-22T14:58:44;20.70;99.90
23143;DHT22;11740;51.168;4.112;2023-06-22T15:01:13;20.70;99.90
23143;DHT22;11740;51.168;4.112;2023-06-22T15:03:40;20.70;99.90
23143;DHT22;11740;51.168;4.112;2023-06-22T15:06:10;20.70;37.90
23143;DHT22;11740;51.168;4.112;2023-06-22T15:08:38;20.70;95.50
23143;DHT22;11740;51.168;4.112;2023-06-22T15:11:05;20.70;99.90
23143;DHT22;11740;51.168;4.112;2023-06-22T15:13:32;20.70;1.00
23143;DHT22;11740;51.168;4.112;2023-06-22T15:16:03;20.70;1.00
23143;DHT22;11740;51.168;4.112;2023-06-22T15:18:30;20.70;1.00
23143;DHT22;11740;51.168;4.112;2023-06-22T15:20:57;20.70;99.90
23143;DHT22;11740;51.168;4.112;2023-06-22T15:23:26;20.80;99.90
23143;DHT22;11740;51.168;4.112;2023-06-22T15:25:52;20.80;99.90
23143;DHT22;11740;51.168;4.112;2023-06-22T15:28:19;20.80;25.70
23143;DHT22;11740;51.168;4.112;2023-06-22T15:30:48;20.80;1.00
23143;DHT22;11740;51.168;4.112;2023-06-22T15:33:15;20.80;28.10
23143;DHT22;11740;51.168;4.112;2023-06-22T15:35:42;20.80;1.00
23143;DHT22;11740;51.168;4.112;2023-06-22T15:38:10;20.80;1.00
23143;DHT22;11740;51.168;4.112;2023-06-22T15:40:37;20.80;1.00
23143;DHT22;11740;51.168;4.112;2023-06-22T15:43:03;20.90;1.00
23143;DHT22;11740;51.168;4.112;2023-06-22T15:45:30;20.90;1.00